createdAt,value
2019-05-17T00:00:16.794Z,7.17
2019-05-17T00:02:47.326Z,7.27
2019-05-17T00:05:18.470Z,7.47
2019-05-17T00:07:48.937Z,8.80
2019-05-17T00:10:19.380Z,8.77
2019-05-17T00:12:49.884Z,8.57
2019-05-17T00:15:20.624Z,7.27
2019-05-17T00:17:51.144Z,8.30
2019-05-17T00:20:21.525Z,7.93
2019-05-17T00:22:51.900Z,8.80
2019-05-17T00:25:22.269Z,9.53
2019-05-17T00:27:58.139Z,8.87
2019-05-17T00:30:28.701Z,8.87
2019-05-17T00:32:59.253Z,8.73
2019-05-17T00:35:31.114Z,9.43
2019-05-17T00:38:01.695Z,10.08
2019-05-17T00:40:32.093Z,8.10
2019-05-17T00:43:02.534Z,9.80
2019-05-17T00:45:32.958Z,8.47
2019-05-17T00:48:03.533Z,10.00
2019-05-17T00:50:33.898Z,10.90
2019-05-17T00:53:06.927Z,10.53
2019-05-17T00:55:36.721Z,8.93
2019-05-17T00:58:07.180Z,9.20
2019-05-17T01:00:53.278Z,10.80
2019-05-17T01:03:26.782Z,10.93
2019-05-17T01:05:56.890Z,7.80
2019-05-17T01:08:27.260Z,11.30
2019-05-17T01:10:57.633Z,12.58
2019-05-17T01:13:28.532Z,11.00
2019-05-17T01:15:58.945Z,9.80
2019-05-17T01:18:29.362Z,10.13
2019-05-17T01:20:59.834Z,9.87
2019-05-17T01:23:30.284Z,10.20
2019-05-17T01:26:00.689Z,10.07
2019-05-17T01:28:31.072Z,10.67
2019-05-17T01:31:01.517Z,11.07
2019-05-17T01:33:31.944Z,10.93
2019-05-17T01:36:02.372Z,11.50
2019-05-17T01:38:33.017Z,11.20
2019-05-17T01:41:03.749Z,11.33
2019-05-17T01:43:36.592Z,12.10
2019-05-17T01:46:06.831Z,10.43
2019-05-17T01:48:37.429Z,10.60
2019-05-17T01:51:07.908Z,10.87
2019-05-17T01:53:39.800Z,11.53
2019-05-17T01:56:10.164Z,11.53
2019-05-17T01:58:41.725Z,12.95
2019-05-17T02:01:12.109Z,12.20
2019-05-17T02:03:42.632Z,11.97
2019-05-17T02:06:13.006Z,11.50
2019-05-17T02:08:43.532Z,10.77
2019-05-17T02:11:14.186Z,11.20
2019-05-17T02:13:46.650Z,11.67
2019-05-17T02:16:16.939Z,14.20
2019-05-17T02:18:47.374Z,12.47
2019-05-17T02:21:17.893Z,12.07
2019-05-17T02:23:48.312Z,11.93
2019-05-17T02:26:18.813Z,11.90
2019-05-17T02:28:49.208Z,12.20
2019-05-17T02:31:20.050Z,11.57
2019-05-17T02:33:53.369Z,10.43
2019-05-17T02:36:23.007Z,11.70
2019-05-17T02:38:53.506Z,11.53
2019-05-17T02:41:23.952Z,9.40
2019-05-17T02:43:54.379Z,9.80
2019-05-17T02:46:24.986Z,10.50
2019-05-17T02:48:55.397Z,11.30
2019-05-17T02:51:25.865Z,11.87
2019-05-17T02:53:56.266Z,11.90
2019-05-17T02:56:26.722Z,11.27
2019-05-17T02:58:57.115Z,10.60
2019-05-17T03:01:38.983Z,11.13
2019-05-17T03:04:12.786Z,11.30
2019-05-17T03:06:44.853Z,10.63
2019-05-17T03:09:15.285Z,11.60
2019-05-17T03:11:45.835Z,11.50
2019-05-17T03:14:16.202Z,11.87
2019-05-17T03:16:46.674Z,12.83
2019-05-17T03:19:17.110Z,11.87
2019-05-17T03:21:47.649Z,12.30
2019-05-17T03:24:18.005Z,10.60
2019-05-17T03:26:48.550Z,9.07
2019-05-17T03:29:18.984Z,11.27
2019-05-17T03:31:59.382Z,11.80
2019-05-17T03:34:26.340Z,11.20
2019-05-17T03:36:57.116Z,12.70
2019-05-17T03:39:27.875Z,12.17
2019-05-17T03:41:58.540Z,10.30
2019-05-17T03:44:28.893Z,11.80
2019-05-17T03:47:18.273Z,11.70
2019-05-17T03:49:48.855Z,11.93
2019-05-17T03:52:22.243Z,12.40
2019-05-17T03:54:53.059Z,12.50
2019-05-17T03:57:24.176Z,13.40
2019-05-17T03:59:54.905Z,12.87
2019-05-17T04:02:25.392Z,14.30
2019-05-17T04:04:55.785Z,15.03
2019-05-17T04:07:26.257Z,14.93
2019-05-17T04:09:56.718Z,14.43
2019-05-17T04:12:27.245Z,14.73
2019-05-17T04:15:07.470Z,14.27
2019-05-17T04:17:38.052Z,19.77
2019-05-17T04:20:09.003Z,16.83
2019-05-17T04:22:58.579Z,13.43
2019-05-17T04:25:29.000Z,13.50
2019-05-17T04:28:02.605Z,14.03
2019-05-17T04:30:32.914Z,14.03
2019-05-17T04:33:04.042Z,13.30
2019-05-17T04:35:34.582Z,14.43
2019-05-17T04:38:05.177Z,14.13
2019-05-17T04:40:35.755Z,13.73
2019-05-17T04:43:06.182Z,15.28
2019-05-17T04:45:36.669Z,14.30
2019-05-17T04:48:07.265Z,13.77
2019-05-17T04:50:37.764Z,13.63
2019-05-17T04:53:08.225Z,13.20
2019-05-17T04:55:38.729Z,12.13
2019-05-17T04:58:09.189Z,12.73
2019-05-17T05:00:42.799Z,12.83
2019-05-17T05:03:12.742Z,12.97
2019-05-17T05:05:43.354Z,14.77
2019-05-17T05:08:13.784Z,14.37
2019-05-17T05:10:44.346Z,14.80
2019-05-17T05:13:14.813Z,17.23
2019-05-17T05:15:45.197Z,16.13
2019-05-17T05:18:15.674Z,14.43
2019-05-17T05:20:46.138Z,14.37
2019-05-17T05:23:16.494Z,14.17
2019-05-17T05:25:46.888Z,14.57
2019-05-17T05:28:36.305Z,14.43
2019-05-17T05:31:06.778Z,14.20
2019-05-17T05:33:37.465Z,13.97
2019-05-17T05:36:08.454Z,12.87
2019-05-17T05:38:38.955Z,13.70
2019-05-17T05:41:09.457Z,15.03
2019-05-17T05:43:43.090Z,14.60
2019-05-17T05:46:13.540Z,13.50
2019-05-17T05:48:43.927Z,13.87
2019-05-17T05:51:21.610Z,14.27
2019-05-17T05:53:52.340Z,12.40
2019-05-17T05:56:22.830Z,12.47
2019-05-17T05:58:53.229Z,13.60
2019-05-17T06:01:23.634Z,11.47
2019-05-17T06:03:54.081Z,14.85
2019-05-17T06:06:24.714Z,11.83
2019-05-17T06:08:55.191Z,11.17
2019-05-17T06:11:25.525Z,8.93
2019-05-17T06:13:56.613Z,9.80
2019-05-17T06:16:27.744Z,9.47
2019-05-17T06:18:58.199Z,10.32
2019-05-17T06:21:28.555Z,9.53
2019-05-17T06:23:58.947Z,9.67
2019-05-17T06:29:15.316Z,10.73
2019-05-17T06:31:45.729Z,11.10
2019-05-17T06:34:17.292Z,9.60
2019-05-17T06:36:47.641Z,9.90
2019-05-17T06:39:18.058Z,10.30
2019-05-17T06:41:48.559Z,11.37
2019-05-17T06:44:21.483Z,10.53
2019-05-17T06:46:51.977Z,10.63
2019-05-17T06:49:22.598Z,10.23
2019-05-17T06:51:53.038Z,10.80
2019-05-17T06:54:23.439Z,10.27
2019-05-17T06:56:53.927Z,10.23
2019-05-17T06:59:24.287Z,10.43
2019-05-17T07:01:54.751Z,10.87
2019-05-17T07:04:25.236Z,9.10
2019-05-17T07:07:13.116Z,9.67
2019-05-17T07:10:02.607Z,9.55
2019-05-17T07:12:33.254Z,9.30
2019-05-17T07:15:03.717Z,9.53
2019-05-17T07:17:34.337Z,9.20
2019-05-17T07:20:04.930Z,9.87
2019-05-17T07:22:35.455Z,9.83
2019-05-17T07:25:06.778Z,9.93
2019-05-17T07:27:41.706Z,10.00
2019-05-17T07:30:10.120Z,10.03
2019-05-17T07:32:40.927Z,9.33
2019-05-17T07:35:23.069Z,10.95
2019-05-17T07:37:53.519Z,9.40
2019-05-17T07:40:24.402Z,8.50
2019-05-17T07:43:06.932Z,9.57
2019-05-17T07:45:26.826Z,6.97
2019-05-17T07:47:57.160Z,7.53
2019-05-17T07:50:29.324Z,18.47
2019-05-17T07:53:00.645Z,15.97
2019-05-17T07:55:31.302Z,7.80
2019-05-17T07:58:01.814Z,7.77
2019-05-17T08:00:32.336Z,7.10
2019-05-17T08:03:02.891Z,6.70
2019-05-17T08:05:33.369Z,7.17
2019-05-17T08:08:03.816Z,7.73
2019-05-17T08:10:34.303Z,7.40
2019-05-17T08:13:04.858Z,7.03
2019-05-17T08:15:35.238Z,7.00
2019-05-17T08:18:05.673Z,6.70
2019-05-17T08:20:36.127Z,7.17
2019-05-17T08:23:10.219Z,7.13
2019-05-17T08:25:52.417Z,7.37
2019-05-17T08:28:13.049Z,7.17
2019-05-17T08:30:44.541Z,7.03
2019-05-17T08:33:14.976Z,6.50
2019-05-17T08:35:45.582Z,6.00
2019-05-17T08:38:17.069Z,6.50
2019-05-17T08:41:00.610Z,5.90
2019-05-17T08:43:43.082Z,6.47
2019-05-17T08:46:03.592Z,6.10
2019-05-17T08:48:34.037Z,5.40
2019-05-17T08:51:04.500Z,5.53
2019-05-17T08:56:21.504Z,4.40
2019-05-17T08:58:51.938Z,4.30
2019-05-17T09:01:22.356Z,4.07
2019-05-17T09:03:54.003Z,4.13
2019-05-17T09:06:24.442Z,4.00
2019-05-17T09:08:54.912Z,4.90
2019-05-17T09:11:25.531Z,4.57
2019-05-17T09:14:01.113Z,4.60
2019-05-17T09:16:30.565Z,4.20
2019-05-17T09:21:42.852Z,4.60
2019-05-17T09:24:13.488Z,4.93
2019-05-17T09:26:43.877Z,4.13
2019-05-17T09:29:14.266Z,18.57
2019-05-17T09:31:56.612Z,4.87
2019-05-17T09:34:27.058Z,4.10
2019-05-17T09:36:57.466Z,4.20
2019-05-17T09:39:29.501Z,4.60
2019-05-17T09:41:59.996Z,4.63
2019-05-17T09:44:30.366Z,4.37
2019-05-17T09:47:00.783Z,4.23
2019-05-17T09:49:31.243Z,4.20
2019-05-17T09:52:01.681Z,3.77
2019-05-17T09:57:15.745Z,3.77
2019-05-17T09:59:46.145Z,3.60
2019-05-17T10:02:16.566Z,3.93
2019-05-17T10:04:47.079Z,4.03
2019-05-17T10:07:17.628Z,3.90
2019-05-17T10:09:50.096Z,3.67
2019-05-17T10:12:20.359Z,3.60
2019-05-17T10:14:51.097Z,3.40
2019-05-17T10:17:21.461Z,3.37
2019-05-17T10:19:53.037Z,3.70
2019-05-17T10:22:23.546Z,3.30
2019-05-17T10:24:53.971Z,3.17
2019-05-17T10:27:24.431Z,3.27
2019-05-17T10:29:54.880Z,3.37
2019-05-17T10:32:25.293Z,3.67
2019-05-17T10:34:55.721Z,3.30
2019-05-17T10:37:26.092Z,3.47
2019-05-17T10:39:56.547Z,2.90
2019-05-17T10:42:26.984Z,3.00
2019-05-17T10:44:59.750Z,3.13
2019-05-17T10:47:30.124Z,2.90
2019-05-17T10:50:01.010Z,2.90
2019-05-17T10:52:31.506Z,3.00
2019-05-17T10:55:01.906Z,2.58
2019-05-17T10:57:32.615Z,2.40
2019-05-17T11:00:03.022Z,2.57
2019-05-17T11:02:34.950Z,3.07
2019-05-17T11:05:05.370Z,2.80
2019-05-17T11:07:35.857Z,2.93
2019-05-17T11:10:06.712Z,2.63
2019-05-17T11:12:37.084Z,2.60
2019-05-17T11:15:11.606Z,2.90
2019-05-17T11:17:40.574Z,2.80
2019-05-17T11:20:11.817Z,2.50
2019-05-17T11:22:42.246Z,2.50
2019-05-17T11:25:12.779Z,2.53
2019-05-17T11:27:43.219Z,2.80
2019-05-17T11:30:13.861Z,2.70
2019-05-17T11:32:44.273Z,2.37
2019-05-17T11:35:14.893Z,3.03
2019-05-17T11:37:45.279Z,3.35
2019-05-17T11:40:16.233Z,3.37
2019-05-17T11:42:46.597Z,3.10
2019-05-17T11:45:27.279Z,3.03
2019-05-17T11:47:54.728Z,2.60
2019-05-17T11:50:26.376Z,2.70
2019-05-17T11:52:56.900Z,3.10
2019-05-17T11:55:28.161Z,2.93
2019-05-17T11:57:58.657Z,2.70
2019-05-17T12:00:29.366Z,2.70
2019-05-17T12:02:59.832Z,2.58
2019-05-17T12:05:30.335Z,2.40
2019-05-17T12:08:00.763Z,2.62
2019-05-17T12:10:31.170Z,3.22
2019-05-17T12:13:01.685Z,2.60
2019-05-17T12:15:44.536Z,2.67
2019-05-17T12:18:04.157Z,2.73
2019-05-17T12:20:34.597Z,2.53
2019-05-17T12:23:06.033Z,2.47
2019-05-17T12:25:36.565Z,2.37
2019-05-17T12:28:07.181Z,2.50
2019-05-17T12:30:37.725Z,2.90
2019-05-17T12:33:08.325Z,2.70
2019-05-17T12:35:38.785Z,2.57
2019-05-17T12:38:09.283Z,2.50
2019-05-17T12:40:39.703Z,2.50
2019-05-17T12:43:10.170Z,2.90
2019-05-17T12:45:40.550Z,3.10
2019-05-17T12:48:11.078Z,2.60
2019-05-17T12:50:41.464Z,2.63
2019-05-17T12:53:11.894Z,2.80
2019-05-17T12:55:42.282Z,2.50
2019-05-17T12:58:12.708Z,2.67
2019-05-17T13:00:43.172Z,2.30
2019-05-17T13:03:13.560Z,2.70
2019-05-17T13:05:44.067Z,2.47
2019-05-17T13:08:14.498Z,2.67
2019-05-17T13:10:44.874Z,2.60
2019-05-17T13:13:34.313Z,2.60
2019-05-17T13:16:17.309Z,3.00
2019-05-17T13:18:38.040Z,2.47
2019-05-17T13:21:08.579Z,2.70
2019-05-17T13:23:39.125Z,2.50
2019-05-17T13:26:09.705Z,2.60
2019-05-17T13:28:40.188Z,2.20
2019-05-17T13:31:10.834Z,3.03
2019-05-17T13:33:41.295Z,2.60
2019-05-17T13:36:11.724Z,2.40
2019-05-17T13:38:42.169Z,2.60
2019-05-17T13:41:12.533Z,2.63
2019-05-17T13:43:43.038Z,2.97
2019-05-17T13:46:13.466Z,2.70
2019-05-17T13:48:43.957Z,2.30
2019-05-17T13:51:15.482Z,2.10
2019-05-17T13:53:45.899Z,2.37
2019-05-17T13:56:16.284Z,2.77
2019-05-17T13:58:46.911Z,2.60
2019-05-17T14:01:17.402Z,2.53
2019-05-17T14:03:47.844Z,2.70
2019-05-17T14:06:18.324Z,2.53
2019-05-17T14:08:48.796Z,2.50
2019-05-17T14:11:19.182Z,2.23
2019-05-17T14:13:49.607Z,2.80
2019-05-17T14:16:20.024Z,2.70
2019-05-17T14:18:50.633Z,2.43
2019-05-17T14:21:21.050Z,2.80
2019-05-17T14:23:51.435Z,2.70
2019-05-17T14:26:21.953Z,2.70
2019-05-17T14:28:52.411Z,2.60
2019-05-17T14:31:22.821Z,2.40
2019-05-17T14:33:53.165Z,3.03
2019-05-17T14:36:23.533Z,2.75
2019-05-17T14:38:53.999Z,2.83
2019-05-17T14:41:24.354Z,2.50
2019-05-17T14:43:55.889Z,2.90
2019-05-17T14:46:26.289Z,2.67
2019-05-17T14:48:56.747Z,2.67
2019-05-17T14:51:27.191Z,3.07
2019-05-17T14:53:58.671Z,3.00
2019-05-17T14:56:29.144Z,3.10
2019-05-17T14:58:59.651Z,3.20
2019-05-17T15:01:32.822Z,2.47
2019-05-17T15:04:02.340Z,2.90
2019-05-17T15:06:33.969Z,2.77
2019-05-17T15:09:05.543Z,3.07
2019-05-17T15:11:36.012Z,3.10
2019-05-17T15:14:06.492Z,3.07
2019-05-17T15:16:36.835Z,3.23
2019-05-17T15:19:07.306Z,3.47
2019-05-17T15:21:37.685Z,3.07
2019-05-17T15:24:27.184Z,3.50
2019-05-17T15:27:05.228Z,3.60
2019-05-17T15:29:29.733Z,3.13
2019-05-17T15:32:00.174Z,3.40
2019-05-17T15:34:30.624Z,3.30
2019-05-17T15:37:01.081Z,3.30
2019-05-17T15:39:31.470Z,3.63
2019-05-17T15:42:01.922Z,3.60
2019-05-17T15:44:32.304Z,3.47
2019-05-17T15:47:02.786Z,3.60
2019-05-17T15:49:33.281Z,3.27
2019-05-17T15:52:03.884Z,3.73
2019-05-17T15:54:34.396Z,3.37
2019-05-17T15:57:04.915Z,2.97
2019-05-17T15:59:35.306Z,3.03
2019-05-17T16:02:17.577Z,3.10
2019-05-17T16:04:48.177Z,3.23
2019-05-17T16:07:18.638Z,3.03
2019-05-17T16:09:49.183Z,3.10
2019-05-17T16:12:19.562Z,3.23
2019-05-17T16:14:50.051Z,3.30
2019-05-17T16:17:20.400Z,3.30
2019-05-17T16:19:50.876Z,3.27
2019-05-17T16:25:03.389Z,3.60
2019-05-17T16:27:33.815Z,3.13
2019-05-17T16:30:04.696Z,3.87
2019-05-17T16:32:35.123Z,3.13
2019-05-17T16:35:06.710Z,3.60
2019-05-17T16:37:37.099Z,3.57
2019-05-17T16:40:08.039Z,3.87
2019-05-17T16:42:38.391Z,3.80
2019-05-17T16:45:10.049Z,3.83
2019-05-17T16:47:40.472Z,3.63
2019-05-17T16:50:11.316Z,3.80
2019-05-17T16:52:41.702Z,4.00
2019-05-17T16:55:12.570Z,3.70
2019-05-17T16:57:43.041Z,3.70
2019-05-17T17:00:28.968Z,3.60
2019-05-17T17:02:59.585Z,3.43
2019-05-17T17:05:30.032Z,4.07
2019-05-17T17:08:00.431Z,3.87
2019-05-17T17:10:31.014Z,3.77
2019-05-17T17:13:01.513Z,4.30
2019-05-17T17:15:51.036Z,3.73
2019-05-17T17:18:21.556Z,4.27
2019-05-17T17:20:52.135Z,4.10
2019-05-17T17:23:22.644Z,4.07
2019-05-17T17:25:53.087Z,3.80
2019-05-17T17:28:25.504Z,4.30
2019-05-17T17:30:55.614Z,3.80
2019-05-17T17:33:26.006Z,4.23
2019-05-17T17:35:56.381Z,4.00
2019-05-17T17:38:26.962Z,4.00
2019-05-17T17:40:57.442Z,4.60
2019-05-17T17:43:27.875Z,4.50
2019-05-17T17:45:58.405Z,4.40
2019-05-17T17:48:28.871Z,4.53
2019-05-17T17:50:59.513Z,5.40
2019-05-17T17:53:30.962Z,4.67
2019-05-17T17:56:01.345Z,4.73
2019-05-17T17:58:31.920Z,4.67
2019-05-17T18:01:15.851Z,5.47
2019-05-17T18:03:46.349Z,5.13
2019-05-17T18:06:16.854Z,4.40
2019-05-17T18:08:59.139Z,5.37
2019-05-17T18:11:29.552Z,4.40
2019-05-17T18:14:13.239Z,5.23
2019-05-17T18:16:40.888Z,5.50
2019-05-17T18:19:11.307Z,5.30
2019-05-17T18:21:41.674Z,4.90
2019-05-17T18:24:12.210Z,4.83
2019-05-17T18:26:42.659Z,5.17
2019-05-17T18:29:13.082Z,4.70
2019-05-17T18:31:43.530Z,4.80
2019-05-17T18:34:13.864Z,4.57
2019-05-17T18:36:44.329Z,4.60
2019-05-17T18:39:14.765Z,4.90
2019-05-17T18:41:45.232Z,4.53
2019-05-17T18:44:27.111Z,4.30
2019-05-17T18:46:47.798Z,4.50
2019-05-17T18:49:18.239Z,4.80
2019-05-17T18:51:48.683Z,4.87
2019-05-17T18:54:19.555Z,4.70
2019-05-17T18:56:49.946Z,4.90
2019-05-17T18:59:20.334Z,4.83
2019-05-17T19:01:50.712Z,4.77
2019-05-17T19:04:21.198Z,4.10
2019-05-17T19:06:51.697Z,4.53
2019-05-17T19:09:41.093Z,4.83
2019-05-17T19:12:11.470Z,4.10
2019-05-17T19:14:43.272Z,4.60
2019-05-17T19:17:19.640Z,4.13
2019-05-17T19:19:49.998Z,4.10
2019-05-17T19:22:20.450Z,3.97
2019-05-17T19:24:50.981Z,4.70
2019-05-17T19:30:08.983Z,3.90
2019-05-17T19:32:39.465Z,3.67
2019-05-17T19:35:10.041Z,3.50
2019-05-17T19:37:40.456Z,3.60
2019-05-17T19:40:11.232Z,3.40
2019-05-17T19:42:41.593Z,3.80
2019-05-17T19:45:13.814Z,3.47
2019-05-17T19:47:44.384Z,3.30
2019-05-17T19:50:26.748Z,3.90
2019-05-17T19:52:57.193Z,3.60
2019-05-17T19:55:27.695Z,4.10
2019-05-17T19:57:58.050Z,3.80
2019-05-17T20:00:28.446Z,3.93
2019-05-17T20:02:58.941Z,3.80
2019-05-17T20:05:29.483Z,4.10
2019-05-17T20:07:59.965Z,4.30
2019-05-17T20:10:30.517Z,4.30
2019-05-17T20:13:01.067Z,3.80
2019-05-17T20:15:34.628Z,3.73
2019-05-17T20:18:03.871Z,4.17
2019-05-17T20:20:34.301Z,3.97
2019-05-17T20:23:04.740Z,3.87
2019-05-17T20:25:35.300Z,4.03
2019-05-17T20:28:05.919Z,3.90
2019-05-17T20:30:36.349Z,3.93
2019-05-17T20:33:06.990Z,3.80
2019-05-17T20:35:38.405Z,3.80
2019-05-17T20:38:08.897Z,4.43
2019-05-17T20:40:39.397Z,3.93
2019-05-17T20:43:09.786Z,3.80
2019-05-17T20:45:40.345Z,4.07
2019-05-17T20:48:10.921Z,4.20
2019-05-17T20:50:41.315Z,4.33
2019-05-17T20:53:18.897Z,4.30
2019-05-17T20:55:44.223Z,3.97
2019-05-17T20:58:14.726Z,4.00
2019-05-17T21:00:45.105Z,4.07
2019-05-17T21:03:15.590Z,4.90
2019-05-17T21:05:46.066Z,4.63
2019-05-17T21:08:16.442Z,4.23
2019-05-17T21:10:46.844Z,4.57
2019-05-17T21:13:17.365Z,4.30
2019-05-17T21:15:48.324Z,4.90
2019-05-17T21:18:18.925Z,4.83
2019-05-17T21:20:49.350Z,4.47
2019-05-17T21:23:19.768Z,4.83
2019-05-17T21:25:50.184Z,5.10
2019-05-17T21:28:20.731Z,5.33
2019-05-17T21:30:51.152Z,5.40
2019-05-17T21:33:21.569Z,4.87
2019-05-17T21:35:52.009Z,4.90
2019-05-17T21:38:22.441Z,5.13
2019-05-17T21:40:52.968Z,4.70
2019-05-17T21:43:23.414Z,4.30
2019-05-17T21:46:03.771Z,4.47
2019-05-17T21:48:27.530Z,5.37
2019-05-17T21:50:58.002Z,4.87
2019-05-17T21:53:28.397Z,5.10
2019-05-17T21:55:58.794Z,5.00
2019-05-17T21:58:29.480Z,5.00
2019-05-17T22:01:21.072Z,5.27
2019-05-17T22:03:51.489Z,5.53
2019-05-17T22:06:21.938Z,5.70
2019-05-17T22:08:52.422Z,5.60
2019-05-17T22:11:22.850Z,5.43
2019-05-17T22:13:53.305Z,5.70
2019-05-17T22:16:23.668Z,6.50
2019-05-17T22:18:54.080Z,6.03
2019-05-17T22:21:24.463Z,5.90
2019-05-17T22:23:54.848Z,6.30
2019-05-17T22:26:25.234Z,6.00
2019-05-17T22:28:55.631Z,5.47
2019-05-17T22:31:26.077Z,5.63
2019-05-17T22:33:56.448Z,5.50
2019-05-17T22:36:26.883Z,6.20
2019-05-17T22:38:57.323Z,5.73
2019-05-17T22:41:27.822Z,5.57
2019-05-17T22:43:58.203Z,5.93
2019-05-17T22:46:36.023Z,5.53
2019-05-17T22:49:00.828Z,6.10
2019-05-17T22:51:31.272Z,5.50
2019-05-17T22:54:01.798Z,6.07
2019-05-17T22:56:32.191Z,5.80
2019-05-17T22:59:02.650Z,5.93
2019-05-17T23:01:33.092Z,5.47
2019-05-17T23:04:04.552Z,5.43
2019-05-17T23:06:34.984Z,6.60
2019-05-17T23:09:06.890Z,6.10
2019-05-17T23:11:37.261Z,5.53
2019-05-17T23:14:07.821Z,6.40
2019-05-17T23:16:50.455Z,6.40
2019-05-17T23:19:10.996Z,6.27
2019-05-17T23:22:00.525Z,5.53
2019-05-17T23:24:30.979Z,5.90
2019-05-17T23:27:01.438Z,6.10
2019-05-17T23:29:31.890Z,6.10
2019-05-17T23:32:02.353Z,5.80
2019-05-17T23:34:32.877Z,5.53
2019-05-17T23:37:03.241Z,6.03
2019-05-17T23:39:33.669Z,6.23
2019-05-17T23:42:04.029Z,5.33
2019-05-17T23:44:34.518Z,6.00
2019-05-17T23:47:07.375Z,6.20
2019-05-17T23:49:37.056Z,5.93
2019-05-17T23:52:07.523Z,5.63
2019-05-17T23:54:37.969Z,5.60
2019-05-17T23:57:08.325Z,5.30
2019-05-17T23:59:38.702Z,5.30
